sensor_id;sensor_type;location;lat;lon;timestamp;temperature;humidity
37412;DHT22;23278;52.110;6.050;2023-10-09T00:00:16;15.10;99.90
37412;DHT22;23278;52.110;6.050;2023-10-09T00:03:01;15.20;99.90
37412;DHT22;23278;52.110;6.050;2023-10-09T00:05:30;15.20;99.90
37412;DHT22;23278;52.110;6.050;2023-10-09T00:08:12;15.30;99.90
37412;DHT22;23278;52.110;6.050;2023-10-09T00:10:42;15.30;99.90
37412;DHT22;23278;52.110;6.050;2023-10-09T00:13:14;15.30;99.90
37412;DHT22;23278;52.110;6.050;2023-10-09T00:15:40;15.30;99.90
37412;DHT22;23278;52.110;6.050;2023-10-09T00:18:07;15.20;99.90
37412;DHT22;23278;52.110;6.050;2023-10-09T00:20:40;15.20;99.90
37412;DHT22;23278;52.110;6.050;2023-10-09T00:23:09;15.20;99.90
37412;DHT22;23278;52.110;6.050;2023-10-09T00:25:40;15.10;99.90
37412;DHT22;23278;52.110;6.050;2023-10-09T00:28:16;15.10;99.90
37412;DHT22;23278;52.110;6.050;2023-10-09T00:30:47;15.10;99.90
37412;DHT22;23278;52.110;6.050;2023-10-09T00:33:14;15.00;99.90
37412;DHT22;23278;52.110;6.050;2023-10-09T00:35:41;15.00;99.90
37412;DHT22;23278;52.110;6.050;2023-10-09T00:38:10;15.10;99.90
37412;DHT22;23278;52.110;6.050;2023-10-09T00:40:48;15.00;99.90
37412;DHT22;23278;52.110;6.050;2023-10-09T00:43:23;15.00;99.90
37412;DHT22;23278;52.110;6.050;2023-10-09T00:45:57;15.00;99.90
37412;DHT22;23278;52.110;6.050;2023-10-09T00:48:35;15.00;99.90
37412;DHT22;23278;52.110;6.050;2023-10-09T00:51:09;15.00;99.90
37412;DHT22;23278;52.110;6.050;2023-10-09T00:53:57;15.10;99.90
37412;DHT22;23278;52.110;6.050;2023-10-09T00:56:45;15.10;99.90
37412;DHT22;23278;52.110;6.050;2023-10-09T00:59:19;15.10;99.90
37412;DHT22;23278;52.110;6.050;2023-10-09T01:01:46;15.20;99.90
37412;DHT22;23278;52.110;6.050;2023-10-09T01:04:30;15.20;99.90
37412;DHT22;23278;52.110;6.050;2023-10-09T01:07:04;15.30;99.90
37412;DHT22;23278;52.110;6.050;2023-10-09T01:09:42;15.30;99.90
37412;DHT22;23278;52.110;6.050;2023-10-09T01:12:10;15.40;99.90
37412;DHT22;23278;52.110;6.050;2023-10-09T01:14:46;15.40;99.90
37412;DHT22;23278;52.110;6.050;2023-10-09T01:17:18;15.50;99.90
37412;DHT22;23278;52.110;6.050;2023-10-09T01:19:56;15.60;99.90
37412;DHT22;23278;52.110;6.050;2023-10-09T01:22:24;15.60;99.90
37412;DHT22;23278;52.110;6.050;2023-10-09T01:24:49;15.70;99.90
37412;DHT22;23278;52.110;6.050;2023-10-09T01:27:16;15.70;99.90
37412;DHT22;23278;52.110;6.050;2023-10-09T01:29:43;15.80;99.90
37412;DHT22;23278;52.110;6.050;2023-10-09T01:32:11;15.80;99.90
37412;DHT22;23278;52.110;6.050;2023-10-09T01:34:45;15.90;99.90
37412;DHT22;23278;52.110;6.050;2023-10-09T01:37:16;16.00;99.90
37412;DHT22;23278;52.110;6.050;2023-10-09T01:39:55;16.00;99.90
37412;DHT22;23278;52.110;6.050;2023-10-09T01:42:24;16.10;99.90
37412;DHT22;23278;52.110;6.050;2023-10-09T01:44:56;16.10;99.90
37412;DHT22;23278;52.110;6.050;2023-10-09T01:47:24;16.20;99.90
37412;DHT22;23278;52.110;6.050;2023-10-09T01:49:51;16.20;99.90
37412;DHT22;23278;52.110;6.050;2023-10-09T01:52:19;16.30;99.90
37412;DHT22;23278;52.110;6.050;2023-10-09T01:54:50;16.30;99.90
37412;DHT22;23278;52.110;6.050;2023-10-09T01:57:20;16.30;99.90
37412;DHT22;23278;52.110;6.050;2023-10-09T01:59:49;16.40;99.90
37412;DHT22;23278;52.110;6.050;2023-10-09T02:02:16;16.40;99.90
37412;DHT22;23278;52.110;6.050;2023-10-09T02:04:56;16.40;99.90
37412;DHT22;23278;52.110;6.050;2023-10-09T02:07:36;16.50;99.90
37412;DHT22;23278;52.110;6.050;2023-10-09T02:10:26;16.50;99.90
37412;DHT22;23278;52.110;6.050;2023-10-09T02:13:02;16.50;99.90
37412;DHT22;23278;52.110;6.050;2023-10-09T02:15:34;16.60;99.90
37412;DHT22;23278;52.110;6.050;2023-10-09T02:18:13;16.60;99.90
37412;DHT22;23278;52.110;6.050;2023-10-09T02:21:13;16.60;99.90
37412;DHT22;23278;52.110;6.050;2023-10-09T02:23:39;16.60;99.90
37412;DHT22;23278;52.110;6.050;2023-10-09T02:26:22;16.60;99.90
37412;DHT22;23278;52.110;6.050;2023-10-09T02:28:53;16.60;99.90
37412;DHT22;23278;52.110;6.050;2023-10-09T02:31:26;16.70;99.90
37412;DHT22;23278;52.110;6.050;2023-10-09T02:34:01;16.70;99.90
37412;DHT22;23278;52.110;6.050;2023-10-09T02:36:30;16.70;99.90
37412;DHT22;23278;52.110;6.050;2023-10-09T02:38:56;16.70;99.90
37412;DHT22;23278;52.110;6.050;2023-10-09T02:41:23;16.70;99.90
37412;DHT22;23278;52.110;6.050;2023-10-09T02:43:53;16.70;99.90
37412;DHT22;23278;52.110;6.050;2023-10-09T02:46:21;16.70;99.90
37412;DHT22;23278;52.110;6.050;2023-10-09T02:48:56;16.70;99.90
37412;DHT22;23278;52.110;6.050;2023-10-09T02:51:23;16.70;99.90
37412;DHT22;23278;52.110;6.050;2023-10-09T02:53:56;16.70;99.90
37412;DHT22;23278;52.110;6.050;2023-10-09T02:56:24;16.70;99.90
37412;DHT22;23278;52.110;6.050;2023-10-09T02:58:51;16.70;99.90
37412;DHT22;23278;52.110;6.050;2023-10-09T03:01:17;16.70;99.90
37412;DHT22;23278;52.110;6.050;2023-10-09T03:03:43;16.70;99.90
37412;DHT22;23278;52.110;6.050;2023-10-09T03:06:14;16.70;99.90
37412;DHT22;23278;52.110;6.050;2023-10-09T03:08:45;16.70;99.90
37412;DHT22;23278;52.110;6.050;2023-10-09T03:11:13;16.70;99.90
37412;DHT22;23278;52.110;6.050;2023-10-09T03:13:43;16.80;99.90
37412;DHT22;23278;52.110;6.050;2023-10-09T03:16:13;16.80;99.90
37412;DHT22;23278;52.110;6.050;2023-10-09T03:18:50;16.80;99.90
37412;DHT22;23278;52.110;6.050;2023-10-09T03:21:16;16.70;99.90
37412;DHT22;23278;52.110;6.050;2023-10-09T03:23:46;16.80;99.90
37412;DHT22;23278;52.110;6.050;2023-10-09T03:26:16;16.80;99.90
37412;DHT22;23278;52.110;6.050;2023-10-09T03:28:45;16.70;99.90
37412;DHT22;23278;52.110;6.050;2023-10-09T03:31:11;16.80;99.90
37412;DHT22;23278;52.110;6.050;2023-10-09T03:33:38;16.80;99.90
37412;DHT22;23278;52.110;6.050;2023-10-09T03:36:04;16.80;99.90
37412;DHT22;23278;52.110;6.050;2023-10-09T03:38:38;16.80;99.90
37412;DHT22;23278;52.110;6.050;2023-10-09T03:41:07;16.90;99.90
37412;DHT22;23278;52.110;6.050;2023-10-09T03:43:38;16.80;99.90
37412;DHT22;23278;52.110;6.050;2023-10-09T03:46:05;16.90;99.90
37412;DHT22;23278;52.110;6.050;2023-10-09T03:48:38;16.80;99.90
37412;DHT22;23278;52.110;6.050;2023-10-09T03:51:04;16.90;99.90
37412;DHT22;23278;52.110;6.050;2023-10-09T03:53:41;16.80;99.90
37412;DHT22;23278;52.110;6.050;2023-10-09T03:56:08;16.80;99.90
37412;DHT22;23278;52.110;6.050;2023-10-09T03:58:41;16.80;99.90
37412;DHT22;23278;52.110;6.050;2023-10-09T04:01:17;16.80;99.90
37412;DHT22;23278;52.110;6.050;2023-10-09T04:03:57;16.80;99.90
37412;DHT22;23278;52.110;6.050;2023-10-09T04:06:27;16.80;99.90
37412;DHT22;23278;52.110;6.050;2023-10-09T04:09:10;16.80;99.90
37412;DHT22;23278;52.110;6.050;2023-10-09T04:11:54;16.80;99.90
37412;DHT22;23278;52.110;6.050;2023-10-09T04:14:36;16.80;99.90
37412;DHT22;23278;52.110;6.050;2023-10-09T04:17:09;16.80;99.90
37412;DHT22;23278;52.110;6.050;2023-10-09T04:19:50;16.90;99.90
37412;DHT22;23278;52.110;6.050;2023-10-09T04:22:45;16.80;99.90
37412;DHT22;23278;52.110;6.050;2023-10-09T04:25:25;16.90;99.90
37412;DHT22;23278;52.110;6.050;2023-10-09T04:27:56;16.90;99.90
37412;DHT22;23278;52.110;6.050;2023-10-09T04:30:38;16.90;99.90
37412;DHT22;23278;52.110;6.050;2023-10-09T04:33:12;16.90;99.90
37412;DHT22;23278;52.110;6.050;2023-10-09T04:36:02;16.90;99.90
37412;DHT22;23278;52.110;6.050;2023-10-09T04:38:47;16.90;99.90
37412;DHT22;23278;52.110;6.050;2023-10-09T04:41:27;17.00;99.90
37412;DHT22;23278;52.110;6.050;2023-10-09T04:43:54;16.90;99.90
37412;DHT22;23278;52.110;6.050;2023-10-09T04:46:30;16.90;99.90
37412;DHT22;23278;52.110;6.050;2023-10-09T04:49:12;16.90;99.90
37412;DHT22;23278;52.110;6.050;2023-10-09T04:52:00;16.80;99.90
37412;DHT22;23278;52.110;6.050;2023-10-09T04:54:44;16.90;99.90
37412;DHT22;23278;52.110;6.050;2023-10-09T04:57:47;16.90;99.90
37412;DHT22;23278;52.110;6.050;2023-10-09T05:00:33;16.90;99.90
37412;DHT22;23278;52.110;6.050;2023-10-09T05:03:01;16.90;99.90
37412;DHT22;23278;52.110;6.050;2023-10-09T05:05:39;16.90;99.90
37412;DHT22;23278;52.110;6.050;2023-10-09T05:08:13;16.90;99.90
37412;DHT22;23278;52.110;6.050;2023-10-09T05:10:54;16.90;99.90
37412;DHT22;23278;52.110;6.050;2023-10-09T05:13:41;16.90;99.90
37412;DHT22;23278;52.110;6.050;2023-10-09T05:16:13;17.00;99.90
37412;DHT22;23278;52.110;6.050;2023-10-09T05:18:41;17.00;99.90
37412;DHT22;23278;52.110;6.050;2023-10-09T05:21:07;17.00;99.90
37412;DHT22;23278;52.110;6.050;2023-10-09T05:23:39;17.00;99.90
37412;DHT22;23278;52.110;6.050;2023-10-09T05:26:17;17.00;99.90
37412;DHT22;23278;52.110;6.050;2023-10-09T05:29:03;17.00;99.90
37412;DHT22;23278;52.110;6.050;2023-10-09T05:31:45;17.00;99.90
37412;DHT22;23278;52.110;6.050;2023-10-09T05:34:22;17.00;99.90
37412;DHT22;23278;52.110;6.050;2023-10-09T05:36:49;17.10;99.90
37412;DHT22;23278;52.110;6.050;2023-10-09T05:39:15;17.10;99.90
37412;DHT22;23278;52.110;6.050;2023-10-09T05:41:55;17.10;99.90
37412;DHT22;23278;52.110;6.050;2023-10-09T05:44:33;17.10;99.90
37412;DHT22;23278;52.110;6.050;2023-10-09T05:47:18;17.10;99.90
37412;DHT22;23278;52.110;6.050;2023-10-09T05:50:13;17.10;99.90
37412;DHT22;23278;52.110;6.050;2023-10-09T05:52:39;17.10;99.90
37412;DHT22;23278;52.110;6.050;2023-10-09T05:55:06;17.10;99.90
37412;DHT22;23278;52.110;6.050;2023-10-09T05:57:59;17.10;99.90
37412;DHT22;23278;52.110;6.050;2023-10-09T06:00:43;17.10;99.90
37412;DHT22;23278;52.110;6.050;2023-10-09T06:03:28;17.10;99.90
37412;DHT22;23278;52.110;6.050;2023-10-09T06:06:14;17.10;99.90
37412;DHT22;23278;52.110;6.050;2023-10-09T06:09:03;17.10;99.90
37412;DHT22;23278;52.110;6.050;2023-10-09T06:11:42;17.10;99.90
37412;DHT22;23278;52.110;6.050;2023-10-09T06:14:19;17.20;99.90
37412;DHT22;23278;52.110;6.050;2023-10-09T06:17:11;17.20;99.90
37412;DHT22;23278;52.110;6.050;2023-10-09T06:19:37;17.20;99.90
37412;DHT22;23278;52.110;6.050;2023-10-09T06:22:09;17.20;99.90
37412;DHT22;23278;52.110;6.050;2023-10-09T06:24:40;17.30;99.90
37412;DHT22;23278;52.110;6.050;2023-10-09T06:27:21;17.30;99.90
37412;DHT22;23278;52.110;6.050;2023-10-09T06:29:52;17.30;99.90
37412;DHT22;23278;52.110;6.050;2023-10-09T06:32:39;17.40;99.90
37412;DHT22;23278;52.110;6.050;2023-10-09T06:35:15;17.30;99.90
37412;DHT22;23278;52.110;6.050;2023-10-09T06:37:57;17.30;99.90
37412;DHT22;23278;52.110;6.050;2023-10-09T06:40:33;17.40;99.90
37412;DHT22;23278;52.110;6.050;2023-10-09T06:43:03;17.40;99.90
37412;DHT22;23278;52.110;6.050;2023-10-09T06:45:45;17.40;99.90
37412;DHT22;23278;52.110;6.050;2023-10-09T06:48:12;17.40;99.90
37412;DHT22;23278;52.110;6.050;2023-10-09T06:51:01;17.40;99.90
37412;DHT22;23278;52.110;6.050;2023-10-09T06:53:46;17.40;99.90
37412;DHT22;23278;52.110;6.050;2023-10-09T06:56:32;17.40;99.90
37412;DHT22;23278;52.110;6.050;2023-10-09T06:59:02;17.40;99.90
37412;DHT22;23278;52.110;6.050;2023-10-09T07:01:48;17.50;99.90
37412;DHT22;23278;52.110;6.050;2023-10-09T07:04:33;17.50;99.90
37412;DHT22;23278;52.110;6.050;2023-10-09T07:06:59;17.50;99.90
37412;DHT22;23278;52.110;6.050;2023-10-09T07:09:27;17.50;99.90
37412;DHT22;23278;52.110;6.050;2023-10-09T07:12:11;17.50;99.90
37412;DHT22;23278;52.110;6.050;2023-10-09T07:14:46;17.50;99.90
37412;DHT22;23278;52.110;6.050;2023-10-09T07:17:12;17.60;99.90
37412;DHT22;23278;52.110;6.050;2023-10-09T07:19:56;17.60;99.90
37412;DHT22;23278;52.110;6.050;2023-10-09T07:22:37;17.60;99.90
37412;DHT22;23278;52.110;6.050;2023-10-09T07:25:19;17.70;99.90
37412;DHT22;23278;52.110;6.050;2023-10-09T07:28:04;17.70;99.90
37412;DHT22;23278;52.110;6.050;2023-10-09T07:30:44;17.70;99.90
37412;DHT22;23278;52.110;6.050;2023-10-09T07:33:11;17.70;99.90
37412;DHT22;23278;52.110;6.050;2023-10-09T07:35:40;17.70;99.90
37412;DHT22;23278;52.110;6.050;2023-10-09T07:38:10;17.80;99.90
37412;DHT22;23278;52.110;6.050;2023-10-09T07:40:40;17.80;99.90
37412;DHT22;23278;52.110;6.050;2023-10-09T07:43:38;17.80;99.90
37412;DHT22;23278;52.110;6.050;2023-10-09T07:46:06;17.80;99.90
37412;DHT22;23278;52.110;6.050;2023-10-09T07:48:50;17.80;99.90
37412;DHT22;23278;52.110;6.050;2023-10-09T07:51:20;17.90;99.90
37412;DHT22;23278;52.110;6.050;2023-10-09T07:53:52;17.90;99.90
37412;DHT22;23278;52.110;6.050;2023-10-09T07:56:37;18.00;99.90
37412;DHT22;23278;52.110;6.050;2023-10-09T07:59:07;18.10;99.90
37412;DHT22;23278;52.110;6.050;2023-10-09T08:01:48;18.10;99.90
37412;DHT22;23278;52.110;6.050;2023-10-09T08:04:25;18.20;99.90
37412;DHT22;23278;52.110;6.050;2023-10-09T08:07:06;18.20;99.90
37412;DHT22;23278;52.110;6.050;2023-10-09T08:09:33;18.30;99.90
37412;DHT22;23278;52.110;6.050;2023-10-09T08:12:34;18.40;99.90
37412;DHT22;23278;52.110;6.050;2023-10-09T08:15:17;18.40;99.90
37412;DHT22;23278;52.110;6.050;2023-10-09T08:17:52;18.50;99.90
37412;DHT22;23278;52.110;6.050;2023-10-09T08:20:25;18.50;99.90
37412;DHT22;23278;52.110;6.050;2023-10-09T08:22:52;18.60;99.90
37412;DHT22;23278;52.110;6.050;2023-10-09T08:25:25;18.70;99.90
37412;DHT22;23278;52.110;6.050;2023-10-09T08:27:57;18.80;99.90
37412;DHT22;23278;52.110;6.050;2023-10-09T08:30:26;18.80;99.90
37412;DHT22;23278;52.110;6.050;2023-10-09T08:32:52;18.90;99.90
37412;DHT22;23278;52.110;6.050;2023-10-09T08:35:52;18.90;99.90
37412;DHT22;23278;52.110;6.050;2023-10-09T08:38:21;19.00;99.90
37412;DHT22;23278;52.110;6.050;2023-10-09T08:40:51;19.10;99.90
37412;DHT22;23278;52.110;6.050;2023-10-09T08:43:24;19.10;99.90
37412;DHT22;23278;52.110;6.050;2023-10-09T08:45:53;19.10;99.90
37412;DHT22;23278;52.110;6.050;2023-10-09T08:48:20;19.20;99.90
37412;DHT22;23278;52.110;6.050;2023-10-09T08:50:52;19.20;99.90
37412;DHT22;23278;52.110;6.050;2023-10-09T08:53:22;19.20;99.90
37412;DHT22;23278;52.110;6.050;2023-10-09T08:55:50;19.20;99.90
37412;DHT22;23278;52.110;6.050;2023-10-09T08:58:17;19.30;99.90
37412;DHT22;23278;52.110;6.050;2023-10-09T09:00:51;19.30;99.90
37412;DHT22;23278;52.110;6.050;2023-10-09T09:03:19;19.40;99.90
37412;DHT22;23278;52.110;6.050;2023-10-09T09:05:56;19.50;99.90
37412;DHT22;23278;52.110;6.050;2023-10-09T09:08:26;19.50;99.90
37412;DHT22;23278;52.110;6.050;2023-10-09T09:16:45;19.80;99.90
37412;DHT22;23278;52.110;6.050;2023-10-09T09:19:14;19.90;99.80
37412;DHT22;23278;52.110;6.050;2023-10-09T09:21:49;19.90;99.60
37412;DHT22;23278;52.110;6.050;2023-10-09T09:24:20;20.00;99.60
37412;DHT22;23278;52.110;6.050;2023-10-09T09:26:50;20.00;99.50
37412;DHT22;23278;52.110;6.050;2023-10-09T09:29:41;20.10;99.40
37412;DHT22;23278;52.110;6.050;2023-10-09T09:32:10;20.20;99.20
37412;DHT22;23278;52.110;6.050;2023-10-09T09:34:50;20.30;99.10
37412;DHT22;23278;52.110;6.050;2023-10-09T09:37:21;20.50;99.10
37412;DHT22;23278;52.110;6.050;2023-10-09T09:39:48;20.70;98.50
37412;DHT22;23278;52.110;6.050;2023-10-09T09:42:18;20.80;98.30
37412;DHT22;23278;52.110;6.050;2023-10-09T09:44:51;21.00;98.10
37412;DHT22;23278;52.110;6.050;2023-10-09T09:47:18;21.10;97.90
37412;DHT22;23278;52.110;6.050;2023-10-09T09:49:54;21.20;97.30
37412;DHT22;23278;52.110;6.050;2023-10-09T09:52:28;21.30;97.10
37412;DHT22;23278;52.110;6.050;2023-10-09T09:54:54;21.40;97.10
37412;DHT22;23278;52.110;6.050;2023-10-09T09:57:23;21.40;97.00
37412;DHT22;23278;52.110;6.050;2023-10-09T09:59:52;21.50;96.80
37412;DHT22;23278;52.110;6.050;2023-10-09T10:02:34;21.60;96.60
37412;DHT22;23278;52.110;6.050;2023-10-09T10:05:05;21.60;96.40
37412;DHT22;23278;52.110;6.050;2023-10-09T10:07:33;21.50;96.40
37412;DHT22;23278;52.110;6.050;2023-10-09T10:10:34;21.50;95.90
37412;DHT22;23278;52.110;6.050;2023-10-09T10:13:04;21.50;95.70
37412;DHT22;23278;52.110;6.050;2023-10-09T10:15:58;21.50;95.70
37412;DHT22;23278;52.110;6.050;2023-10-09T10:18:24;21.60;95.70
37412;DHT22;23278;52.110;6.050;2023-10-09T10:23:40;21.60;95.50
37412;DHT22;23278;52.110;6.050;2023-10-09T10:26:22;21.50;95.40
37412;DHT22;23278;52.110;6.050;2023-10-09T10:29:20;21.50;95.30
37412;DHT22;23278;52.110;6.050;2023-10-09T10:34:20;21.50;95.40
37412;DHT22;23278;52.110;6.050;2023-10-09T10:36:50;21.50;95.20
37412;DHT22;23278;52.110;6.050;2023-10-09T10:39:25;21.40;95.20
37412;DHT22;23278;52.110;6.050;2023-10-09T10:42:09;21.60;95.10
37412;DHT22;23278;52.110;6.050;2023-10-09T10:44:41;21.80;94.90
37412;DHT22;23278;52.110;6.050;2023-10-09T10:47:12;21.90;94.70
37412;DHT22;23278;52.110;6.050;2023-10-09T10:49:54;22.10;94.60
37412;DHT22;23278;52.110;6.050;2023-10-09T10:52:46;22.30;94.20
37412;DHT22;23278;52.110;6.050;2023-10-09T10:55:23;22.50;93.70
37412;DHT22;23278;52.110;6.050;2023-10-09T10:58:01;22.80;93.30
37412;DHT22;23278;52.110;6.050;2023-10-09T11:00:35;23.00;93.10
37412;DHT22;23278;52.110;6.050;2023-10-09T11:03:20;23.20;92.90
37412;DHT22;23278;52.110;6.050;2023-10-09T11:06:02;23.30;92.30
37412;DHT22;23278;52.110;6.050;2023-10-09T11:08:49;23.40;91.90
37412;DHT22;23278;52.110;6.050;2023-10-09T11:11:24;23.60;91.50
37412;DHT22;23278;52.110;6.050;2023-10-09T11:14:08;24.00;90.80
37412;DHT22;23278;52.110;6.050;2023-10-09T11:16:36;24.20;90.30
37412;DHT22;23278;52.110;6.050;2023-10-09T11:19:12;24.40;89.90
37412;DHT22;23278;52.110;6.050;2023-10-09T11:21:50;24.70;88.10
37412;DHT22;23278;52.110;6.050;2023-10-09T11:24:26;24.70;87.10
37412;DHT22;23278;52.110;6.050;2023-10-09T11:26:53;24.60;87.00
37412;DHT22;23278;52.110;6.050;2023-10-09T11:29:22;24.40;86.50
37412;DHT22;23278;52.110;6.050;2023-10-09T11:32:02;24.40;86.60
37412;DHT22;23278;52.110;6.050;2023-10-09T11:34:32;24.50;86.50
37412;DHT22;23278;52.110;6.050;2023-10-09T11:37:02;24.50;86.20
37412;DHT22;23278;52.110;6.050;2023-10-09T11:39:30;24.50;86.10
37412;DHT22;23278;52.110;6.050;2023-10-09T11:42:04;24.30;86.50
37412;DHT22;23278;52.110;6.050;2023-10-09T11:44:39;24.10;86.70
37412;DHT22;23278;52.110;6.050;2023-10-09T11:47:07;23.90;87.10
37412;DHT22;23278;52.110;6.050;2023-10-09T11:50:03;23.70;87.60
37412;DHT22;23278;52.110;6.050;2023-10-09T11:52:32;23.60;88.20
37412;DHT22;23278;52.110;6.050;2023-10-09T11:55:05;23.40;88.70
37412;DHT22;23278;52.110;6.050;2023-10-09T11:57:42;23.40;88.90
37412;DHT22;23278;52.110;6.050;2023-10-09T12:00:08;23.40;88.90
37412;DHT22;23278;52.110;6.050;2023-10-09T12:02:51;23.40;89.00
37412;DHT22;23278;52.110;6.050;2023-10-09T12:05:18;23.30;89.30
37412;DHT22;23278;52.110;6.050;2023-10-09T12:07:48;23.10;89.80
37412;DHT22;23278;52.110;6.050;2023-10-09T12:10:23;23.00;90.10
37412;DHT22;23278;52.110;6.050;2023-10-09T12:12:55;22.80;90.30
37412;DHT22;23278;52.110;6.050;2023-10-09T12:15:24;22.60;90.60
37412;DHT22;23278;52.110;6.050;2023-10-09T12:17:51;22.50;90.80
37412;DHT22;23278;52.110;6.050;2023-10-09T12:20:19;22.50;91.00
37412;DHT22;23278;52.110;6.050;2023-10-09T12:23:01;22.40;91.20
37412;DHT22;23278;52.110;6.050;2023-10-09T12:25:31;22.40;91.40
37412;DHT22;23278;52.110;6.050;2023-10-09T12:27:59;22.30;91.50
37412;DHT22;23278;52.110;6.050;2023-10-09T12:30:30;22.20;91.60
37412;DHT22;23278;52.110;6.050;2023-10-09T12:32:57;22.20;91.70
37412;DHT22;23278;52.110;6.050;2023-10-09T12:35:26;22.20;91.70
37412;DHT22;23278;52.110;6.050;2023-10-09T12:37:54;22.20;91.70
37412;DHT22;23278;52.110;6.050;2023-10-09T12:40:23;22.20;91.70
37412;DHT22;23278;52.110;6.050;2023-10-09T12:42:55;22.10;91.70
37412;DHT22;23278;52.110;6.050;2023-10-09T12:45:27;22.10;91.80
37412;DHT22;23278;52.110;6.050;2023-10-09T12:48:00;22.00;91.90
37412;DHT22;23278;52.110;6.050;2023-10-09T12:50:38;22.00;92.10
37412;DHT22;23278;52.110;6.050;2023-10-09T12:53:08;21.90;92.20
37412;DHT22;23278;52.110;6.050;2023-10-09T12:55:40;21.90;92.30
37412;DHT22;23278;52.110;6.050;2023-10-09T12:58:11;21.90;92.30
37412;DHT22;23278;52.110;6.050;2023-10-09T13:00:42;21.80;92.40
37412;DHT22;23278;52.110;6.050;2023-10-09T13:03:17;21.80;92.50
37412;DHT22;23278;52.110;6.050;2023-10-09T13:05:51;21.80;92.50
37412;DHT22;23278;52.110;6.050;2023-10-09T13:08:27;21.70;92.60
37412;DHT22;23278;52.110;6.050;2023-10-09T13:11:07;21.70;92.70
37412;DHT22;23278;52.110;6.050;2023-10-09T13:13:37;21.70;92.80
37412;DHT22;23278;52.110;6.050;2023-10-09T13:16:21;21.60;92.90
37412;DHT22;23278;52.110;6.050;2023-10-09T13:18:54;21.60;92.90
37412;DHT22;23278;52.110;6.050;2023-10-09T13:21:23;21.60;93.00
37412;DHT22;23278;52.110;6.050;2023-10-09T13:23:50;21.60;93.10
37412;DHT22;23278;52.110;6.050;2023-10-09T13:26:20;21.50;93.20
37412;DHT22;23278;52.110;6.050;2023-10-09T13:28:57;21.50;93.30
37412;DHT22;23278;52.110;6.050;2023-10-09T13:31:24;21.50;93.50
37412;DHT22;23278;52.110;6.050;2023-10-09T13:33:57;21.40;93.60
37412;DHT22;23278;52.110;6.050;2023-10-09T13:36:27;21.40;93.70
37412;DHT22;23278;52.110;6.050;2023-10-09T13:39:02;21.40;93.80
37412;DHT22;23278;52.110;6.050;2023-10-09T13:41:48;21.40;94.10
37412;DHT22;23278;52.110;6.050;2023-10-09T13:44:15;21.40;94.00
37412;DHT22;23278;52.110;6.050;2023-10-09T13:46:41;21.40;94.10
37412;DHT22;23278;52.110;6.050;2023-10-09T13:49:11;21.30;94.20
37412;DHT22;23278;52.110;6.050;2023-10-09T13:51:40;21.30;94.20
37412;DHT22;23278;52.110;6.050;2023-10-09T13:54:14;21.30;94.30
37412;DHT22;23278;52.110;6.050;2023-10-09T13:57:15;21.20;94.40
37412;DHT22;23278;52.110;6.050;2023-10-09T13:59:42;21.20;94.50
37412;DHT22;23278;52.110;6.050;2023-10-09T14:02:09;21.20;94.60
37412;DHT22;23278;52.110;6.050;2023-10-09T14:04:36;21.20;94.60
37412;DHT22;23278;52.110;6.050;2023-10-09T14:07:02;21.20;94.80
37412;DHT22;23278;52.110;6.050;2023-10-09T14:09:31;21.10;94.80
37412;DHT22;23278;52.110;6.050;2023-10-09T14:11:58;21.10;94.90
37412;DHT22;23278;52.110;6.050;2023-10-09T14:17:06;21.20;95.00
37412;DHT22;23278;52.110;6.050;2023-10-09T14:19:47;21.20;95.00
37412;DHT22;23278;52.110;6.050;2023-10-09T14:22:14;21.20;95.00
37412;DHT22;23278;52.110;6.050;2023-10-09T14:24:45;21.30;94.90
37412;DHT22;23278;52.110;6.050;2023-10-09T14:27:15;21.30;94.80
37412;DHT22;23278;52.110;6.050;2023-10-09T14:29:47;21.50;94.70
37412;DHT22;23278;52.110;6.050;2023-10-09T14:32:14;21.50;94.60
37412;DHT22;23278;52.110;6.050;2023-10-09T14:34:44;21.50;94.60
37412;DHT22;23278;52.110;6.050;2023-10-09T14:37:17;21.50;94.70
37412;DHT22;23278;52.110;6.050;2023-10-09T14:39:45;21.50;94.70
37412;DHT22;23278;52.110;6.050;2023-10-09T14:42:15;21.60;94.70
37412;DHT22;23278;52.110;6.050;2023-10-09T14:44:41;21.60;94.60
37412;DHT22;23278;52.110;6.050;2023-10-09T14:47:08;21.60;94.60
37412;DHT22;23278;52.110;6.050;2023-10-09T14:49:34;21.70;94.60
37412;DHT22;23278;52.110;6.050;2023-10-09T14:52:13;21.70;94.50
37412;DHT22;23278;52.110;6.050;2023-10-09T14:54:43;21.70;94.50
37412;DHT22;23278;52.110;6.050;2023-10-09T14:57:11;21.60;94.60
37412;DHT22;23278;52.110;6.050;2023-10-09T14:59:37;21.60;94.70
37412;DHT22;23278;52.110;6.050;2023-10-09T15:02:04;21.60;94.70
37412;DHT22;23278;52.110;6.050;2023-10-09T15:04:31;21.50;94.80
37412;DHT22;23278;52.110;6.050;2023-10-09T15:06:57;21.50;94.80
37412;DHT22;23278;52.110;6.050;2023-10-09T15:09:23;21.50;94.90
37412;DHT22;23278;52.110;6.050;2023-10-09T15:11:54;21.40;95.00
37412;DHT22;23278;52.110;6.050;2023-10-09T15:14:20;21.40;94.90
37412;DHT22;23278;52.110;6.050;2023-10-09T15:16:47;21.60;94.80
37412;DHT22;23278;52.110;6.050;2023-10-09T15:19:13;21.70;94.70
37412;DHT22;23278;52.110;6.050;2023-10-09T15:21:40;21.70;94.60
37412;DHT22;23278;52.110;6.050;2023-10-09T15:24:13;21.70;94.60
37412;DHT22;23278;52.110;6.050;2023-10-09T15:26:45;21.70;94.60
37412;DHT22;23278;52.110;6.050;2023-10-09T15:29:24;21.70;94.60
37412;DHT22;23278;52.110;6.050;2023-10-09T15:32:03;21.60;94.70
37412;DHT22;23278;52.110;6.050;2023-10-09T15:34:40;21.60;94.70
37412;DHT22;23278;52.110;6.050;2023-10-09T15:37:07;21.60;94.70
37412;DHT22;23278;52.110;6.050;2023-10-09T15:39:36;21.60;94.60
37412;DHT22;23278;52.110;6.050;2023-10-09T15:42:02;21.50;94.60
37412;DHT22;23278;52.110;6.050;2023-10-09T15:44:33;21.40;94.70
37412;DHT22;23278;52.110;6.050;2023-10-09T15:47:03;21.30;94.80
37412;DHT22;23278;52.110;6.050;2023-10-09T15:49:29;21.30;94.90
37412;DHT22;23278;52.110;6.050;2023-10-09T15:52:00;21.20;95.10
37412;DHT22;23278;52.110;6.050;2023-10-09T15:54:27;21.20;95.10
37412;DHT22;23278;52.110;6.050;2023-10-09T15:56:55;21.20;95.20
37412;DHT22;23278;52.110;6.050;2023-10-09T15:59:24;21.20;95.10
37412;DHT22;23278;52.110;6.050;2023-10-09T16:01:50;21.20;95.10
37412;DHT22;23278;52.110;6.050;2023-10-09T16:04:17;21.20;95.20
37412;DHT22;23278;52.110;6.050;2023-10-09T16:06:43;21.10;95.20
37412;DHT22;23278;52.110;6.050;2023-10-09T16:09:10;21.00;95.30
37412;DHT22;23278;52.110;6.050;2023-10-09T16:11:41;21.00;95.40
37412;DHT22;23278;52.110;6.050;2023-10-09T16:14:07;20.90;95.50
37412;DHT22;23278;52.110;6.050;2023-10-09T16:16:36;20.90;95.60
37412;DHT22;23278;52.110;6.050;2023-10-09T16:19:11;20.80;95.60
37412;DHT22;23278;52.110;6.050;2023-10-09T16:21:40;20.80;95.70
37412;DHT22;23278;52.110;6.050;2023-10-09T16:24:07;20.80;95.70